createdAt,value
2023-04-18T00:00:10.322Z,101509.97
2023-04-18T00:02:40.188Z,101503.75
2023-04-18T00:05:09.638Z,101503.75
2023-04-18T00:07:37.692Z,101501.09
2023-04-18T00:10:08.424Z,101500.09
2023-04-18T00:12:36.919Z,101495.78
2023-04-18T00:15:07.313Z,101497.34
2023-04-18T00:17:35.676Z,101492.59
2023-04-18T00:20:07.249Z,101495.72
2023-04-18T00:22:35.761Z,101499.31
2023-04-18T00:25:04.078Z,101501.63
2023-04-18T00:27:33.464Z,101496.72
2023-04-18T00:30:01.587Z,101494.91
2023-04-18T00:32:30.004Z,101498.84
2023-04-18T00:35:00.497Z,101494.87
2023-04-18T00:37:28.625Z,101495.06
2023-04-18T00:39:56.906Z,101493.53
2023-04-18T00:42:25.992Z,101498.94
2023-04-18T00:44:57.884Z,101502.50
2023-04-18T00:47:26.982Z,101493.28
2023-04-18T00:49:55.948Z,101495.78
2023-04-18T00:52:27.155Z,101489.03
2023-04-18T00:54:56.624Z,101486.69
2023-04-18T00:57:25.510Z,101495.13
2023-04-18T00:59:55.030Z,101491.09
2023-04-18T01:02:26.160Z,101496.25
2023-04-18T01:04:54.792Z,101487.94
2023-04-18T01:07:23.208Z,101491.25
2023-04-18T01:09:51.707Z,101486.94
2023-04-18T01:12:22.088Z,101488.28
2023-04-18T01:14:50.083Z,101490.31
2023-04-18T01:17:20.000Z,101494.37
2023-04-18T01:19:48.107Z,101486.94
2023-04-18T01:22:16.104Z,101493.09
2023-04-18T01:24:45.727Z,101481.44
2023-04-18T01:27:14.314Z,101488.25
2023-04-18T01:29:42.391Z,101481.44
2023-04-18T01:32:10.725Z,101492.56
2023-04-18T01:34:38.807Z,101488.72
2023-04-18T01:37:06.950Z,101485.78
2023-04-18T01:39:38.029Z,101483.41
2023-04-18T01:42:07.471Z,101481.13
2023-04-18T01:44:35.746Z,101480.66
2023-04-18T01:47:03.702Z,101480.34
2023-04-18T01:49:33.929Z,101482.47
2023-04-18T01:52:02.221Z,101480.56
2023-04-18T01:54:30.208Z,101482.16
2023-04-18T01:56:58.182Z,101476.66
2023-04-18T01:59:27.830Z,101470.69
2023-04-18T02:01:55.957Z,101480.19
2023-04-18T02:04:26.555Z,101470.69
2023-04-18T02:06:54.740Z,101473.03
2023-04-18T02:09:22.849Z,101476.66
2023-04-18T02:11:56.219Z,101467.09
2023-04-18T02:14:24.733Z,101481.50
2023-04-18T02:16:54.467Z,101477.13
2023-04-18T02:19:22.612Z,101473.22
2023-04-18T02:21:50.791Z,101470.69
2023-04-18T02:24:19.379Z,101471.25
2023-04-18T02:26:47.379Z,101482.28
2023-04-18T02:29:15.457Z,101479.88
2023-04-18T02:31:43.937Z,101479.62
2023-04-18T02:34:17.561Z,101481.97
2023-04-18T02:36:48.643Z,101477.59
2023-04-18T02:39:16.694Z,101475.25
2023-04-18T02:41:44.739Z,101485.31
2023-04-18T02:44:13.329Z,101475.31
2023-04-18T02:46:41.427Z,101474.50
2023-04-18T02:49:09.972Z,101485.25
2023-04-18T02:51:39.693Z,101476.16
2023-04-18T02:54:07.933Z,101485.97
2023-04-18T02:56:40.079Z,101470.84
2023-04-18T02:59:11.087Z,101483.03
2023-04-18T03:01:40.337Z,101482.38
2023-04-18T03:04:08.718Z,101487.97
2023-04-18T03:06:38.922Z,101487.16
2023-04-18T03:09:07.400Z,101489.72
2023-04-18T03:11:36.544Z,101486.34
2023-04-18T03:14:07.295Z,101491.37
2023-04-18T03:16:35.752Z,101488.75
2023-04-18T03:19:04.549Z,101492.16
2023-04-18T03:21:33.776Z,101480.47
2023-04-18T03:24:04.021Z,101492.78
2023-04-18T03:26:35.256Z,101494.06
2023-04-18T03:29:03.974Z,101493.03
2023-04-18T03:31:33.457Z,101493.97
2023-04-18T03:34:01.802Z,101494.22
2023-04-18T03:36:31.379Z,101491.03
2023-04-18T03:38:59.921Z,101501.37
2023-04-18T03:41:30.924Z,101504.69
2023-04-18T03:43:59.413Z,101491.78
2023-04-18T03:46:28.989Z,101503.28
2023-04-18T03:48:57.921Z,101501.75
2023-04-18T03:51:26.410Z,101508.31
2023-04-18T03:53:54.503Z,101508.00
2023-04-18T03:56:24.329Z,101513.25
2023-04-18T03:58:54.254Z,101519.50
2023-04-18T04:01:22.625Z,101519.34
2023-04-18T04:03:52.241Z,101508.88
2023-04-18T04:06:21.075Z,101516.13
2023-04-18T04:08:49.319Z,101516.00
2023-04-18T04:11:19.120Z,101521.06
2023-04-18T04:13:47.265Z,101525.44
2023-04-18T04:16:17.854Z,101529.91
2023-04-18T04:18:46.962Z,101532.41
2023-04-18T04:21:15.761Z,101529.75
2023-04-18T04:23:44.198Z,101528.19
2023-04-18T04:26:15.114Z,101531.69
2023-04-18T04:28:46.567Z,101534.84
2023-04-18T04:31:17.197Z,101541.97
2023-04-18T04:33:45.566Z,101542.13
2023-04-18T04:36:18.562Z,101543.22
2023-04-18T04:38:48.240Z,101542.91
2023-04-18T04:41:16.716Z,101549.38
2023-04-18T04:43:46.573Z,101550.25
2023-04-18T04:46:20.137Z,101554.47
2023-04-18T04:48:50.169Z,101553.00
2023-04-18T04:51:19.931Z,101557.84
2023-04-18T04:53:48.099Z,101551.97
2023-04-18T04:56:16.198Z,101562.78
2023-04-18T04:58:45.154Z,101555.25
2023-04-18T05:01:13.732Z,101563.06
2023-04-18T05:03:43.747Z,101566.88
2023-04-18T05:06:12.309Z,101563.16
2023-04-18T05:08:40.429Z,101560.28
2023-04-18T05:11:08.428Z,101563.78
2023-04-18T05:13:36.687Z,101571.69
2023-04-18T05:16:05.923Z,101566.03
2023-04-18T05:18:35.000Z,101566.81
2023-04-18T05:21:05.030Z,101565.56
2023-04-18T05:23:34.872Z,101570.03
2023-04-18T05:26:03.020Z,101572.41
2023-04-18T05:28:31.349Z,101568.81
2023-04-18T05:31:02.055Z,101570.94
2023-04-18T05:33:30.772Z,101569.00
2023-04-18T05:35:59.800Z,101578.69
2023-04-18T05:38:29.216Z,101573.25
2023-04-18T05:41:00.234Z,101579.25
2023-04-18T05:43:28.658Z,101577.75
2023-04-18T05:45:57.872Z,101576.72
2023-04-18T05:48:28.835Z,101581.94
2023-04-18T05:50:58.120Z,101587.28
2023-04-18T05:53:27.154Z,101575.75
2023-04-18T05:56:02.214Z,101581.78
2023-04-18T05:58:31.517Z,101587.13
2023-04-18T06:00:59.618Z,101590.06
2023-04-18T06:03:28.424Z,101591.88
2023-04-18T06:05:56.643Z,101594.53
2023-04-18T06:08:24.662Z,101595.16
2023-04-18T06:10:52.819Z,101597.13
2023-04-18T06:13:22.067Z,101599.72
2023-04-18T06:15:50.168Z,101603.34
2023-04-18T06:18:18.427Z,101598.34
2023-04-18T06:20:46.413Z,101601.28
2023-04-18T06:23:14.370Z,101601.09
2023-04-18T06:25:43.062Z,101600.97
2023-04-18T06:28:11.160Z,101601.50
2023-04-18T06:30:40.442Z,101607.31
2023-04-18T06:33:10.467Z,101601.50
2023-04-18T06:35:39.088Z,101606.56
2023-04-18T06:38:07.178Z,101612.25
2023-04-18T06:40:35.693Z,101612.34
2023-04-18T06:43:03.939Z,101617.59
2023-04-18T06:45:34.928Z,101618.44
2023-04-18T06:48:06.021Z,101614.47
2023-04-18T06:50:34.478Z,101618.91
2023-04-18T06:53:02.642Z,101621.31
2023-04-18T06:55:31.032Z,101616.63
2023-04-18T06:58:00.437Z,101612.09
2023-04-18T07:00:28.622Z,101620.13
2023-04-18T07:03:03.161Z,101620.97
2023-04-18T07:05:32.988Z,101626.25
2023-04-18T07:08:01.688Z,101618.94
2023-04-18T07:10:31.669Z,101623.00
2023-04-18T07:12:59.789Z,101619.59
2023-04-18T07:15:28.383Z,101613.31
2023-04-18T07:17:56.600Z,101615.22
2023-04-18T07:20:24.757Z,101611.31
2023-04-18T07:22:57.045Z,101614.34
2023-04-18T07:25:25.233Z,101626.81
2023-04-18T07:27:53.826Z,101619.75
2023-04-18T07:30:22.022Z,101620.97
2023-04-18T07:32:50.454Z,101620.63
2023-04-18T07:35:19.214Z,101623.97
2023-04-18T07:37:49.079Z,101635.59
2023-04-18T07:40:18.674Z,101621.31
2023-04-18T07:42:47.250Z,101626.66
2023-04-18T07:45:15.938Z,101619.38
2023-04-18T07:47:44.315Z,101613.84
2023-04-18T07:50:12.940Z,101626.81
2023-04-18T07:52:41.172Z,101633.63
2023-04-18T07:55:10.344Z,101635.62
2023-04-18T07:57:40.075Z,101634.97
2023-04-18T08:00:09.527Z,101639.47
2023-04-18T08:02:41.816Z,101636.31
2023-04-18T08:05:10.836Z,101637.69
2023-04-18T08:07:39.089Z,101640.97
2023-04-18T08:10:08.452Z,101619.00
2023-04-18T08:12:37.176Z,101618.19
2023-04-18T08:15:07.753Z,101623.37
2023-04-18T08:17:36.004Z,101627.53
2023-04-18T08:20:07.409Z,101626.59
2023-04-18T08:22:38.936Z,101629.94
2023-04-18T08:25:13.058Z,101636.69
2023-04-18T08:27:41.240Z,101627.59
2023-04-18T08:30:11.825Z,101631.94
2023-04-18T08:32:43.228Z,101631.59
2023-04-18T08:35:11.526Z,101632.28
2023-04-18T08:37:40.218Z,101634.41
2023-04-18T08:40:09.535Z,101630.31
2023-04-18T08:42:38.379Z,101625.59
2023-04-18T08:45:09.285Z,101627.16
2023-04-18T08:47:38.874Z,101626.50
2023-04-18T08:50:11.118Z,101625.81
2023-04-18T08:52:40.706Z,101626.50
2023-04-18T08:55:10.462Z,101629.16
2023-04-18T08:57:38.514Z,101631.19
2023-04-18T09:00:10.034Z,101631.13
2023-04-18T09:02:43.851Z,101637.88
2023-04-18T09:05:15.135Z,101635.81
2023-04-18T09:07:44.451Z,101633.87
2023-04-18T09:10:15.663Z,101641.19
2023-04-18T09:12:50.667Z,101633.47
2023-04-18T09:15:22.610Z,101626.06
2023-04-18T09:18:01.491Z,101627.53
2023-04-18T09:20:35.767Z,101633.00
2023-04-18T09:23:11.516Z,101625.66
2023-04-18T09:25:46.470Z,101616.81
2023-04-18T09:28:27.023Z,101625.81
2023-04-18T09:30:56.663Z,101628.12
2023-04-18T09:33:32.595Z,101619.09
2023-04-18T09:36:19.144Z,101630.09
2023-04-18T09:38:48.479Z,101635.94
2023-04-18T09:41:22.559Z,101633.91
2023-04-18T09:43:52.197Z,101624.25
2023-04-18T09:46:22.626Z,101614.31
2023-04-18T09:48:52.965Z,101628.03
2023-04-18T09:51:21.541Z,101621.75
2023-04-18T09:53:51.029Z,101626.72
2023-04-18T09:56:25.655Z,101632.72
2023-04-18T09:59:01.030Z,101636.13
2023-04-18T10:01:30.134Z,101623.78
2023-04-18T10:04:04.226Z,101617.59
2023-04-18T10:06:42.206Z,101630.47
2023-04-18T10:09:11.466Z,101624.03
2023-04-18T10:11:40.410Z,101625.63
2023-04-18T10:14:13.864Z,101631.53
2023-04-18T10:16:45.467Z,101623.56
2023-04-18T10:19:26.091Z,101623.00
2023-04-18T10:22:02.486Z,101623.09
2023-04-18T10:24:48.481Z,101621.28
2023-04-18T10:27:17.912Z,101614.03
2023-04-18T10:29:50.647Z,101624.38
2023-04-18T10:32:20.162Z,101622.66
2023-04-18T10:34:50.651Z,101621.50
2023-04-18T10:37:19.175Z,101606.53
2023-04-18T10:39:56.869Z,101606.94
2023-04-18T10:42:59.043Z,101615.81
2023-04-18T10:45:30.677Z,101612.34
2023-04-18T10:48:27.132Z,101611.38
2023-04-18T10:51:16.912Z,101608.25
2023-04-18T10:53:52.866Z,101614.69
2023-04-18T10:56:21.712Z,101609.47
2023-04-18T10:58:52.323Z,101611.34
2023-04-18T11:01:31.682Z,101604.25
2023-04-18T11:04:15.549Z,101605.69
2023-04-18T11:06:56.343Z,101600.25
2023-04-18T11:09:25.358Z,101599.75
2023-04-18T11:12:05.340Z,101610.66
2023-04-18T11:14:43.684Z,101596.66
2023-04-18T11:17:20.136Z,101597.62
2023-04-18T11:19:48.859Z,101599.16
2023-04-18T11:22:19.368Z,101590.81
2023-04-18T11:24:47.633Z,101602.72
2023-04-18T11:27:17.382Z,101589.16
2023-04-18T11:29:45.543Z,101588.53
2023-04-18T11:32:13.589Z,101594.38
2023-04-18T11:34:42.214Z,101592.50
2023-04-18T11:37:10.725Z,101590.22
2023-04-18T11:39:44.627Z,101589.00
2023-04-18T11:42:13.454Z,101600.94
2023-04-18T11:44:44.076Z,101594.97
2023-04-18T11:47:23.979Z,101591.69
2023-04-18T11:49:59.698Z,101589.56
2023-04-18T11:52:32.480Z,101589.87
2023-04-18T11:55:14.178Z,101589.72
2023-04-18T11:57:42.883Z,101584.84
2023-04-18T12:00:12.959Z,101593.06
2023-04-18T12:02:43.490Z,101588.63
2023-04-18T12:05:14.626Z,101590.50
2023-04-18T12:07:46.598Z,101593.41
2023-04-18T12:10:28.020Z,101588.34
2023-04-18T12:12:58.805Z,101601.75
2023-04-18T12:15:28.670Z,101592.53
2023-04-18T12:18:01.857Z,101590.34
2023-04-18T12:20:38.945Z,101587.88
2023-04-18T12:23:30.505Z,101577.62
2023-04-18T12:26:05.793Z,101579.91
2023-04-18T12:28:37.178Z,101578.00
2023-04-18T12:31:07.306Z,101580.56
2023-04-18T12:33:37.084Z,101584.34
2023-04-18T12:36:09.637Z,101579.56
2023-04-18T12:38:38.654Z,101586.56
2023-04-18T12:41:09.158Z,101594.97
2023-04-18T12:43:40.967Z,101589.28
2023-04-18T12:46:10.553Z,101583.59
2023-04-18T12:52:22.466Z,101584.75
2023-04-18T12:54:51.745Z,101589.13
2023-04-18T12:57:21.985Z,101588.59
2023-04-18T12:59:53.637Z,101586.25
2023-04-18T13:02:22.073Z,101586.06
2023-04-18T13:08:08.435Z,101579.03
2023-04-18T13:10:42.861Z,101579.37
2023-04-18T13:13:12.284Z,101572.00
2023-04-18T13:15:40.588Z,101573.50
2023-04-18T13:18:08.981Z,101573.91
2023-04-18T13:20:37.722Z,101572.91
2023-04-18T13:23:06.364Z,101566.03
2023-04-18T13:25:36.561Z,101565.50
2023-04-18T13:28:14.357Z,101579.63
2023-04-18T13:30:44.841Z,101572.78
2023-04-18T13:33:14.493Z,101580.53
2023-04-18T13:35:43.662Z,101573.97
2023-04-18T13:38:12.473Z,101576.81
2023-04-18T13:40:40.734Z,101582.94
2023-04-18T13:43:13.905Z,101571.94
2023-04-18T13:45:46.903Z,101573.47
2023-04-18T13:48:16.617Z,101578.22
2023-04-18T13:50:46.409Z,101580.59
2023-04-18T13:53:16.372Z,101580.25
2023-04-18T13:55:45.947Z,101573.13
2023-04-18T13:58:14.566Z,101584.31
2023-04-18T14:00:42.725Z,101587.84
2023-04-18T14:03:12.694Z,101580.34
2023-04-18T14:05:41.660Z,101578.25
2023-04-18T14:08:10.570Z,101582.81
2023-04-18T14:10:39.163Z,101585.16
2023-04-18T14:13:12.410Z,101583.91
2023-04-18T14:15:44.113Z,101583.34
2023-04-18T14:18:13.715Z,101586.25
2023-04-18T14:20:57.906Z,101589.03
2023-04-18T14:23:27.805Z,101593.09
2023-04-18T14:25:56.137Z,101597.13
2023-04-18T14:28:25.148Z,101599.75
2023-04-18T14:30:55.498Z,101589.03
2023-04-18T14:33:25.300Z,101591.56
2023-04-18T14:35:53.462Z,101591.50
2023-04-18T14:38:21.782Z,101587.84
2023-04-18T14:40:50.034Z,101594.81
2023-04-18T14:43:18.009Z,101594.56
2023-04-18T14:45:46.105Z,101583.44
2023-04-18T14:48:14.545Z,101596.03
2023-04-18T14:50:44.200Z,101592.81
2023-04-18T14:53:12.953Z,101588.25
2023-04-18T14:55:41.160Z,101595.19
2023-04-18T14:58:09.194Z,101591.41
2023-04-18T15:00:37.208Z,101592.28
2023-04-18T15:03:07.224Z,101594.44
2023-04-18T15:05:42.703Z,101587.03
2023-04-18T15:08:12.385Z,101593.97
2023-04-18T15:10:42.386Z,101587.41
2023-04-18T15:13:11.318Z,101594.72
2023-04-18T15:15:39.904Z,101599.09
2023-04-18T15:18:09.123Z,101589.03
2023-04-18T15:20:39.542Z,101580.41
2023-04-18T15:23:09.756Z,101581.00
2023-04-18T15:25:39.472Z,101580.28
2023-04-18T15:28:07.493Z,101583.25
2023-04-18T15:30:35.690Z,101586.84
2023-04-18T15:33:04.619Z,101583.19
2023-04-18T15:35:33.121Z,101580.72
2023-04-18T15:38:01.505Z,101580.59
2023-04-18T15:40:30.451Z,101581.91
2023-04-18T15:43:00.209Z,101586.19
2023-04-18T15:45:28.676Z,101587.50
2023-04-18T15:47:57.231Z,101582.81
2023-04-18T15:50:26.216Z,101585.38
2023-04-18T15:52:54.346Z,101588.47
2023-04-18T15:55:22.752Z,101585.16
2023-04-18T15:57:53.754Z,101586.75
2023-04-18T16:00:25.151Z,101579.59
2023-04-18T16:02:53.649Z,101585.06
2023-04-18T16:05:21.771Z,101589.97
2023-04-18T16:07:49.775Z,101583.31
2023-04-18T16:10:18.231Z,101582.25
2023-04-18T16:12:47.337Z,101582.03
2023-04-18T16:15:15.444Z,101586.28
2023-04-18T16:17:45.479Z,101578.66
2023-04-18T16:20:13.828Z,101588.22
2023-04-18T16:22:42.139Z,101594.19
2023-04-18T16:25:11.029Z,101588.25
2023-04-18T16:27:39.372Z,101591.72
2023-04-18T16:30:10.007Z,101585.34
2023-04-18T16:32:39.059Z,101582.66
2023-04-18T16:35:10.230Z,101587.41
2023-04-18T16:37:38.750Z,101578.22
2023-04-18T16:40:09.910Z,101582.81
2023-04-18T16:42:38.386Z,101584.88
2023-04-18T16:45:07.391Z,101577.91
2023-04-18T16:47:35.818Z,101578.87
2023-04-18T16:50:04.236Z,101578.87
2023-04-18T16:52:33.885Z,101579.09
2023-04-18T16:55:02.121Z,101579.47
2023-04-18T16:57:30.666Z,101579.47
2023-04-18T17:00:02.156Z,101585.06
2023-04-18T17:02:32.345Z,101579.63
2023-04-18T17:05:01.074Z,101577.91
2023-04-18T17:07:29.150Z,101591.84
2023-04-18T17:09:58.757Z,101591.75
2023-04-18T17:12:27.149Z,101590.91
2023-04-18T17:14:55.153Z,101594.06
2023-04-18T17:17:24.350Z,101592.13
2023-04-18T17:19:52.363Z,101587.62
2023-04-18T17:22:20.516Z,101590.63
2023-04-18T17:24:49.001Z,101587.56
2023-04-18T17:27:18.727Z,101586.44
2023-04-18T17:29:46.919Z,101591.19
2023-04-18T17:32:15.380Z,101590.22
2023-04-18T17:34:43.688Z,101584.88
2023-04-18T17:37:12.466Z,101588.50
2023-04-18T17:39:40.782Z,101591.19
2023-04-18T17:42:08.781Z,101592.72
2023-04-18T17:44:39.732Z,101592.81
2023-04-18T17:47:08.332Z,101589.56
2023-04-18T17:49:36.405Z,101589.25
2023-04-18T17:52:04.994Z,101591.75
2023-04-18T17:54:33.811Z,101587.38
2023-04-18T17:57:01.951Z,101586.47
2023-04-18T17:59:30.288Z,101591.19
2023-04-18T18:02:00.089Z,101589.75
2023-04-18T18:04:28.679Z,101589.50
2023-04-18T18:06:56.965Z,101594.00
2023-04-18T18:09:25.043Z,101594.50
2023-04-18T18:11:55.796Z,101596.63
2023-04-18T18:14:28.088Z,101590.97
2023-04-18T18:16:56.677Z,101595.56
2023-04-18T18:19:26.852Z,101598.34
2023-04-18T18:21:55.097Z,101593.47
2023-04-18T18:26:53.230Z,101592.19
2023-04-18T18:29:21.620Z,101591.78
2023-04-18T18:31:50.139Z,101595.97
2023-04-18T18:34:27.126Z,101590.63
2023-04-18T18:36:56.931Z,101596.72
2023-04-18T18:39:24.997Z,101596.81
2023-04-18T18:41:53.176Z,101599.22
2023-04-18T18:44:21.487Z,101600.84
2023-04-18T18:46:49.560Z,101595.28
2023-04-18T18:49:17.880Z,101608.69
2023-04-18T18:51:46.899Z,101604.06
2023-04-18T18:54:16.308Z,101598.72
2023-04-18T18:56:45.274Z,101599.59
2023-04-18T18:59:13.619Z,101602.25
2023-04-18T19:01:41.950Z,101610.22
2023-04-18T19:04:10.936Z,101603.03
2023-04-18T19:06:39.363Z,101602.25
2023-04-18T19:09:07.558Z,101606.69
2023-04-18T19:11:37.143Z,101603.03
2023-04-18T19:14:05.728Z,101602.38
2023-04-18T19:16:35.954Z,101601.50
2023-04-18T19:19:04.139Z,101601.69
2023-04-18T19:21:32.401Z,101602.06
2023-04-18T19:24:00.564Z,101602.50
2023-04-18T19:26:28.650Z,101596.06
2023-04-18T19:28:58.167Z,101604.00
2023-04-18T19:31:26.268Z,101607.75
2023-04-18T19:33:54.232Z,101605.94
2023-04-18T19:36:23.335Z,101602.50
2023-04-18T19:38:51.450Z,101604.59
2023-04-18T19:41:19.525Z,101600.97
2023-04-18T19:43:48.505Z,101601.56
2023-04-18T19:46:18.051Z,101597.84
2023-04-18T19:48:46.163Z,101606.91
2023-04-18T19:51:14.449Z,101599.41
2023-04-18T19:53:42.457Z,101602.94
2023-04-18T19:56:12.502Z,101597.59
2023-04-18T19:58:46.203Z,101602.81
2023-04-18T20:01:15.524Z,101597.38
2023-04-18T20:03:45.390Z,101597.28
2023-04-18T20:06:14.209Z,101591.84
2023-04-18T20:08:42.561Z,101594.81
2023-04-18T20:11:11.872Z,101592.50
2023-04-18T20:13:40.794Z,101589.56
2023-04-18T20:16:10.958Z,101590.31
2023-04-18T20:18:41.025Z,101589.34
2023-04-18T20:21:11.540Z,101592.13
2023-04-18T20:23:41.669Z,101588.88
2023-04-18T20:26:10.059Z,101591.38
2023-04-18T20:28:38.667Z,101584.12
2023-04-18T20:31:07.218Z,101597.22
2023-04-18T20:33:36.213Z,101595.13
2023-04-18T20:36:05.476Z,101587.41
2023-04-18T20:38:36.864Z,101586.81
2023-04-18T20:41:04.838Z,101591.59
2023-04-18T20:43:36.663Z,101589.13
2023-04-18T20:46:05.045Z,101585.59
2023-04-18T20:48:33.529Z,101586.72
2023-04-18T20:51:01.673Z,101591.09
2023-04-18T20:53:30.389Z,101588.25
2023-04-18T20:56:01.939Z,101590.94
2023-04-18T20:58:31.124Z,101590.47
2023-04-18T21:00:59.399Z,101592.16
2023-04-18T21:03:27.660Z,101592.38
2023-04-18T21:05:56.183Z,101597.25
2023-04-18T21:08:24.267Z,101592.09
2023-04-18T21:10:52.521Z,101597.34
2023-04-18T21:13:22.212Z,101591.72
2023-04-18T21:15:51.885Z,101594.19
2023-04-18T21:18:20.300Z,101586.16
2023-04-18T21:20:48.338Z,101588.09
2023-04-18T21:23:16.263Z,101596.28
2023-04-18T21:25:44.508Z,101589.22
2023-04-18T21:28:12.966Z,101601.56
2023-04-18T21:30:42.662Z,101594.25
2023-04-18T21:33:11.067Z,101595.09
2023-04-18T21:35:39.430Z,101595.75
2023-04-18T21:38:07.798Z,101586.69
2023-04-18T21:40:35.987Z,101595.28
2023-04-18T21:43:05.102Z,101590.66
2023-04-18T21:45:33.759Z,101594.12
2023-04-18T21:48:03.552Z,101595.03
2023-04-18T21:50:31.660Z,101594.38
2023-04-18T21:52:59.638Z,101597.28
2023-04-18T21:55:28.125Z,101599.19
2023-04-18T21:57:56.222Z,101596.00
2023-04-18T22:00:24.505Z,101597.91
2023-04-18T22:02:53.129Z,101586.72
2023-04-18T22:05:22.925Z,101589.50
2023-04-18T22:07:58.139Z,101585.72
2023-04-18T22:10:26.993Z,101587.34
2023-04-18T22:12:56.158Z,101579.22
2023-04-18T22:15:27.185Z,101580.72
2023-04-18T22:17:56.160Z,101574.03
2023-04-18T22:20:26.865Z,101572.50
2023-04-18T22:22:55.208Z,101584.56
2023-04-18T22:25:23.481Z,101579.09
2023-04-18T22:27:51.411Z,101579.28
2023-04-18T22:30:19.433Z,101574.62
2023-04-18T22:32:47.818Z,101573.97
2023-04-18T22:35:16.961Z,101571.53
2023-04-18T22:37:46.845Z,101565.97
2023-04-18T22:40:16.501Z,101566.84
2023-04-18T22:42:44.725Z,101572.06
2023-04-18T22:45:13.594Z,101576.31
2023-04-18T22:47:42.073Z,101574.44
2023-04-18T22:50:10.740Z,101576.53
2023-04-18T22:52:39.059Z,101566.88
2023-04-18T22:55:09.886Z,101563.50
2023-04-18T22:57:39.361Z,101569.31
2023-04-18T23:00:10.076Z,101557.94
2023-04-18T23:02:38.448Z,101563.47
2023-04-18T23:05:08.145Z,101553.31
2023-04-18T23:07:36.448Z,101555.66
2023-04-18T23:10:06.484Z,101559.59
2023-04-18T23:12:35.982Z,101552.47
2023-04-18T23:15:04.559Z,101555.16
2023-04-18T23:17:34.758Z,101556.06
2023-04-18T23:20:03.809Z,101561.50
2023-04-18T23:22:32.445Z,101552.63
2023-04-18T23:25:00.580Z,101555.75
2023-04-18T23:27:28.556Z,101557.62
2023-04-18T23:29:58.690Z,101562.28
2023-04-18T23:32:26.819Z,101553.22
2023-04-18T23:34:54.849Z,101554.59
2023-04-18T23:37:23.197Z,101551.09
2023-04-18T23:39:51.197Z,101554.19
2023-04-18T23:42:19.168Z,101557.50
2023-04-18T23:44:47.517Z,101552.19
2023-04-18T23:47:17.022Z,101548.25
2023-04-18T23:49:45.828Z,101548.28
2023-04-18T23:52:14.517Z,101545.75
2023-04-18T23:54:42.592Z,101544.34
2023-04-18T23:57:10.704Z,101545.13
2023-04-18T23:59:39.000Z,101537.19
